Time;durP1;ratioP1;P1;durP2;ratioP2;P2;SDS_P1;SDS_P2;PMS_P1;PMS_P2;Temp;Humidity;BMP_temperature;BMP_pressure;BME280_temperature;BME280_humidity;BME280_pressure;Samples;Min_cycle;Max_cycle;Signal;HPM_P1;HPM_P2
2023/08/09 00:00:19;;;;;;;1.98;1.67;;;28.00;44.00;;;;;;4993053;28;20061;-73
2023/08/09 00:02:45;;;;;;;2.30;1.88;;;28.00;44.00;;;;;;5008090;28;20494;-74
2023/08/09 00:05:11;;;;;;;4.03;2.30;;;28.00;44.00;;;;;;4992875;28;20113;-74
2023/08/09 00:07:37;;;;;;;2.78;2.03;;;28.10;44.00;;;;;;4993220;28;20034;-74
2023/08/09 00:10:04;;;;;;;2.63;2.00;;;28.10;44.00;;;;;;4992844;28;20045;-74
2023/08/09 00:12:31;;;;;;;2.42;1.90;;;28.10;43.90;;;;;;4991574;28;20410;-73
2023/08/09 00:14:57;;;;;;;3.47;2.10;;;28.10;43.90;;;;;;4992827;28;20474;-74
2023/08/09 00:17:23;;;;;;;2.88;2.15;;;28.00;43.90;;;;;;4992837;28;20045;-74
2023/08/09 00:19:49;;;;;;;3.95;2.58;;;28.10;43.90;;;;;;4992486;28;20117;-74
2023/08/09 00:22:16;;;;;;;3.33;2.25;;;28.20;43.90;;;;;;4992684;28;20035;-74
2023/08/09 00:24:42;;;;;;;3.50;2.22;;;28.10;43.90;;;;;;4992474;28;20462;-74
2023/08/09 00:27:08;;;;;;;2.28;1.80;;;28.20;43.90;;;;;;4991286;28;20132;-73
2023/08/09 00:29:34;;;;;;;1.80;1.70;;;28.10;43.90;;;;;;4974866;28;20074;-74
2023/08/09 00:32:01;;;;;;;2.90;2.45;;;28.10;43.90;;;;;;4992633;28;20037;-74
2023/08/09 00:34:27;;;;;;;4.85;2.08;;;28.20;43.90;;;;;;4992157;28;20054;-74
2023/08/09 00:36:53;;;;;;;2.35;2.15;;;28.10;43.90;;;;;;4992590;28;20394;-73
2023/08/09 00:39:19;;;;;;;3.15;2.03;;;28.20;43.80;;;;;;4990936;28;20080;-73
2023/08/09 00:41:45;;;;;;;1.92;1.70;;;28.20;43.90;;;;;;5007251;28;20037;-73
2023/08/09 00:44:12;;;;;;;3.38;2.10;;;28.30;43.80;;;;;;4991631;28;20027;-73
2023/08/09 00:46:38;;;;;;;3.13;1.80;;;28.20;43.80;;;;;;4992229;28;20038;-73
2023/08/09 00:49:06;;;;;;;2.45;2.00;;;28.30;43.80;;;;;;4992122;28;20773;-73
2023/08/09 00:51:33;;;;;;;3.15;2.22;;;28.30;43.80;;;;;;4992044;28;20535;-73
2023/08/09 00:54:00;;;;;;;4.32;2.08;;;28.30;43.80;;;;;;4992251;28;20494;-74
2023/08/09 00:56:27;;;;;;;4.65;1.65;;;28.30;43.80;;;;;;4991974;28;20505;-74
2023/08/09 00:58:53;;;;;;;2.67;2.08;;;28.30;43.80;;;;;;4991901;28;20045;-74
2023/08/09 01:01:19;;;;;;;5.30;3.63;;;28.30;43.80;;;;;;4991881;28;20522;-74
2023/08/09 01:03:45;;;;;;;5.00;3.20;;;28.40;43.80;;;;;;4991986;28;20113;-73
2023/08/09 01:06:22;;;;;;;4.50;2.30;;;28.40;43.80;;;;;;4991955;28;20133;-73
2023/08/09 01:08:53;;;;;;;1.90;1.70;;;28.30;43.80;;;;;;4991865;28;20041;-74
2023/08/09 01:11:55;;;;;;;3.03;2.08;;;28.30;43.80;;;;;;4991714;28;20124;-74
2023/08/09 01:14:24;;;;;;;2.13;1.90;;;28.20;43.80;;;;;;4950698;28;20503;-73
2023/08/09 01:16:53;;;;;;;3.35;2.40;;;28.30;43.80;;;;;;4934561;29;20043;-73
2023/08/09 01:19:38;;;;;;;3.42;2.08;;;28.20;43.90;;;;;;4950460;28;20133;-73
2023/08/09 01:22:13;;;;;;;2.00;1.80;;;28.20;43.90;;;;;;4950634;28;20432;-74
2023/08/09 01:24:40;;;;;;;2.13;1.83;;;28.20;43.90;;;;;;4950559;28;20066;-73
2023/08/09 01:27:06;;;;;;;3.78;2.55;;;28.10;43.90;;;;;;4950269;29;20039;-73
2023/08/09 01:29:36;;;;;;;3.65;2.10;;;28.20;44.00;;;;;;4950405;28;20110;-74
2023/08/09 01:32:02;;;;;;;2.58;2.28;;;28.20;44.00;;;;;;4950196;28;20043;-74
2023/08/09 01:34:30;;;;;;;1.85;1.67;;;28.30;44.00;;;;;;4934324;29;20499;-73
2023/08/09 01:37:03;;;;;;;2.95;1.90;;;28.20;44.00;;;;;;4950244;29;20550;-74
2023/08/09 01:39:34;;;;;;;2.25;1.77;;;28.30;44.00;;;;;;4950436;28;20039;-74
2023/08/09 01:42:00;;;;;;;2.05;1.55;;;28.20;44.00;;;;;;4950339;28;20050;-74
2023/08/09 01:44:28;;;;;;;2.78;2.20;;;28.10;44.00;;;;;;4950307;28;20055;-73
2023/08/09 01:46:54;;;;;;;4.88;2.50;;;28.10;44.00;;;;;;4950173;28;20043;-74
2023/08/09 01:49:23;;;;;;;3.25;1.83;;;28.30;44.00;;;;;;4950399;29;20043;-73
2023/08/09 01:51:51;;;;;;;3.92;2.42;;;28.20;44.00;;;;;;5006449;28;20483;-72
2023/08/09 01:54:17;;;;;;;4.50;1.92;;;28.20;44.00;;;;;;4991357;28;20031;-74
2023/08/09 01:56:44;;;;;;;5.75;2.13;;;28.20;44.00;;;;;;4994336;28;20046;-74
2023/08/09 01:59:10;;;;;;;2.38;2.17;;;28.20;44.00;;;;;;5010348;28;20066;-73
2023/08/09 02:01:37;;;;;;;3.72;2.13;;;28.20;44.00;;;;;;4994002;28;20505;-73
2023/08/09 02:04:04;;;;;;;2.28;2.00;;;28.20;44.00;;;;;;4995207;28;20117;-74
2023/08/09 02:06:34;;;;;;;3.08;2.17;;;28.20;44.00;;;;;;4995246;28;20110;-73
2023/08/09 02:09:01;;;;;;;3.10;2.28;;;28.10;44.00;;;;;;4995167;28;20509;-73
2023/08/09 02:11:28;;;;;;;3.05;2.00;;;28.10;44.10;;;;;;4994992;28;20109;-74
2023/08/09 02:13:54;;;;;;;3.50;1.98;;;28.20;44.10;;;;;;4993817;28;20038;-74
2023/08/09 02:16:21;;;;;;;4.70;1.92;;;28.10;44.10;;;;;;4993761;28;20035;-74
2023/08/09 02:18:48;;;;;;;5.03;2.22;;;28.10;44.10;;;;;;4993738;28;20452;-74
2023/08/09 02:21:14;;;;;;;3.25;2.20;;;28.10;44.10;;;;;;4994824;28;20038;-73
2023/08/09 02:23:40;;;;;;;3.90;1.98;;;28.10;44.00;;;;;;4993722;28;20026;-73
2023/08/09 02:26:13;;;;;;;3.40;2.30;;;28.10;44.10;;;;;;4993260;28;20176;-73
2023/08/09 02:28:39;;;;;;;2.78;2.13;;;28.10;44.20;;;;;;4995089;28;20041;-74
2023/08/09 02:31:08;;;;;;;2.55;2.35;;;28.10;44.20;;;;;;4994823;28;20466;-73
2023/08/09 02:33:35;;;;;;;2.90;2.10;;;28.20;44.30;;;;;;4994907;28;20133;-73
2023/08/09 02:36:05;;;;;;;3.40;2.40;;;28.10;44.20;;;;;;4993459;28;20035;-73
2023/08/09 02:38:31;;;;;;;6.80;2.30;;;28.10;44.20;;;;;;4994818;28;20102;-74
2023/08/09 02:41:04;;;;;;;2.70;1.92;;;28.10;44.20;;;;;;4993132;28;20038;-74
2023/08/09 02:43:30;;;;;;;2.35;1.90;;;28.20;44.20;;;;;;5009718;28;20121;-74
2023/08/09 02:45:57;;;;;;;2.35;2.15;;;28.10;44.20;;;;;;4994620;28;20390;-73
2023/08/09 02:48:24;;;;;;;4.53;2.13;;;28.00;44.20;;;;;;4993383;28;20120;-73
2023/08/09 02:50:52;;;;;;;2.53;2.22;;;28.10;44.20;;;;;;4993037;28;20041;-74
2023/08/09 02:53:18;;;;;;;2.33;1.73;;;28.10;44.20;;;;;;5009377;28;20054;-74
2023/08/09 02:55:44;;;;;;;3.85;2.15;;;28.10;44.20;;;;;;5009595;28;20049;-74
2023/08/09 02:58:10;;;;;;;2.67;2.13;;;28.10;44.20;;;;;;4994244;28;20038;-74
2023/08/09 03:00:37;;;;;;;6.18;3.17;;;28.10;44.20;;;;;;4993052;28;20114;-74
2023/08/09 03:03:05;;;;;;;2.80;1.95;;;28.10;44.20;;;;;;4994273;28;20465;-74
2023/08/09 03:05:32;;;;;;;4.20;2.20;;;28.10;44.20;;;;;;4992855;28;20049;-74
2023/08/09 03:07:59;;;;;;;6.70;3.15;;;28.20;44.30;;;;;;4993604;28;20034;-73
2023/08/09 03:10:28;;;;;;;4.10;3.40;;;28.10;44.30;;;;;;4992620;28;20121;-73
2023/08/09 03:12:55;;;;;;;5.47;2.45;;;28.10;44.30;;;;;;4992697;28;20088;-73
2023/08/09 03:15:22;;;;;;;3.70;2.08;;;28.00;44.30;;;;;;5009216;28;20474;-74
2023/08/09 03:17:48;;;;;;;3.92;2.63;;;28.00;44.30;;;;;;4993957;28;20260;-74
2023/08/09 03:20:15;;;;;;;4.75;2.60;;;28.20;44.30;;;;;;4992708;28;20042;-74
2023/08/09 03:22:42;;;;;;;2.53;2.30;;;28.00;44.30;;;;;;5009012;28;20045;-73
2023/08/09 03:25:11;;;;;;;3.08;2.22;;;28.00;44.30;;;;;;4993706;28;20031;-73
2023/08/09 03:27:37;;;;;;;3.33;2.47;;;28.00;44.30;;;;;;4993795;28;20042;-74
2023/08/09 03:30:05;;;;;;;5.35;3.58;;;27.90;43.90;;;;;;5008819;28;20038;-73
2023/08/09 03:32:32;;;;;;;7.57;3.65;;;28.10;44.60;;;;;;5008502;28;20131;-74
2023/08/09 03:34:58;;;;;;;4.18;3.13;;;28.00;44.50;;;;;;4993396;28;20407;-74
2023/08/09 03:37:24;;;;;;;4.40;3.03;;;28.00;44.50;;;;;;4992357;28;20045;-74
2023/08/09 03:39:51;;;;;;;3.40;2.55;;;28.10;44.50;;;;;;4992262;28;20394;-74
2023/08/09 03:42:17;;;;;;;3.22;2.08;;;28.00;44.50;;;;;;4992127;28;20030;-74
2023/08/09 03:44:43;;;;;;;3.17;2.20;;;28.00;44.50;;;;;;4993466;28;20022;-73
2023/08/09 03:47:09;;;;;;;4.88;1.90;;;28.00;44.50;;;;;;4991997;28;20386;-74
2023/08/09 03:49:36;;;;;;;2.72;2.25;;;27.90;44.00;;;;;;4992402;28;20045;-75
2023/08/09 03:52:02;;;;;;;3.80;2.38;;;28.00;44.50;;;;;;4975856;28;20045;-70
2023/08/09 03:54:29;;;;;;;2.95;2.13;;;28.00;44.60;;;;;;5008302;28;20031;-71
2023/08/09 03:56:57;;;;;;;3.97;2.67;;;28.00;44.40;;;;;;4992010;28;20038;-70
2023/08/09 03:59:23;;;;;;;3.10;2.67;;;28.00;44.00;;;;;;4992032;28;20030;-71
2023/08/09 04:01:50;;;;;;;4.18;3.03;;;28.10;43.70;;;;;;4992996;28;20371;-70
2023/08/09 04:04:16;;;;;;;4.40;3.03;;;28.00;43.50;;;;;;4992033;28;20030;-70
2023/08/09 04:06:42;;;;;;;6.03;3.50;;;28.10;43.30;;;;;;5008011;28;20641;-70
2023/08/09 04:09:12;;;;;;;4.50;2.97;;;28.00;43.10;;;;;;4993322;28;20031;-70
2023/08/09 04:11:39;;;;;;;9.00;3.28;;;28.00;42.80;;;;;;4991818;28;20045;-71
2023/08/09 04:14:05;;;;;;;3.78;2.90;;;27.90;41.70;;;;;;4992943;28;20026;-69
2023/08/09 04:16:41;;;;;;;;;;;;;;;;;;;;;
2023/08/09 04:19:08;;;;;;;3.08;2.50;;;28.00;45.10;;;;;;4992210;28;20082;-70
2023/08/09 04:21:34;;;;;;;7.65;3.22;;;28.10;47.60;;;;;;4975577;28;20038;-69
2023/08/09 04:24:00;;;;;;;4.47;2.55;;;28.50;47.80;;;;;;5009771;28;20610;-70
2023/08/09 04:26:27;;;;;;;3.85;2.78;;;28.40;46.90;;;;;;5009763;28;20124;-70
2023/08/09 04:28:54;;;;;;;3.70;2.85;;;28.40;46.60;;;;;;5009772;28;20053;-70
2023/08/09 04:31:20;;;;;;;6.68;3.25;;;28.50;49.70;;;;;;4993047;28;20088;-71
2023/08/09 04:33:49;;;;;;;13.70;4.20;;;28.90;49.10;;;;;;5009732;28;20055;-69
2023/08/09 04:36:18;;;;;;;3.55;2.97;;;28.80;46.40;;;;;;5009892;28;20180;-69
2023/08/09 04:38:45;;;;;;;6.13;3.15;;;28.60;45.20;;;;;;5009844;28;20046;-69
2023/08/09 04:41:11;;;;;;;5.38;2.95;;;28.50;44.80;;;;;;5009629;28;20156;-70
2023/08/09 04:43:44;;;;;;;5.10;3.00;;;28.40;45.20;;;;;;5009638;28;20053;-70
2023/08/09 04:46:12;;;;;;;3.63;2.72;;;28.40;45.30;;;;;;4993463;28;20034;-70
2023/08/09 04:48:39;;;;;;;3.33;2.33;;;28.40;45.20;;;;;;5009764;28;20076;-70
2023/08/09 04:51:07;;;;;;;3.95;3.15;;;28.30;45.20;;;;;;5009238;28;20038;-71
2023/08/09 04:53:33;;;;;;;4.65;3.28;;;28.40;45.30;;;;;;5009539;28;20122;-70
2023/08/09 04:55:59;;;;;;;3.72;2.70;;;28.40;45.30;;;;;;5009257;28;20062;-70
2023/08/09 04:58:25;;;;;;;6.32;3.10;;;28.30;45.40;;;;;;5009479;28;20037;-70
2023/08/09 05:00:51;;;;;;;3.20;2.83;;;28.30;45.50;;;;;;5004972;28;20149;-70
2023/08/09 05:03:17;;;;;;;6.65;3.47;;;28.30;45.50;;;;;;4992842;28;20135;-70
2023/08/09 05:05:44;;;;;;;5.50;3.53;;;28.40;44.80;;;;;;5022683;28;20066;-70
2023/08/09 05:08:10;;;;;;;6.60;3.75;;;28.40;44.00;;;;;;4992425;28;20038;-71
2023/08/09 05:10:36;;;;;;;7.03;3.47;;;28.20;43.60;;;;;;4990767;28;20038;-72
2023/08/09 05:13:03;;;;;;;5.43;3.63;;;28.20;43.20;;;;;;4992048;28;20823;-74
2023/08/09 05:15:29;;;;;;;9.70;3.58;;;28.20;45.20;;;;;;4992307;28;20038;-74
2023/08/09 05:17:55;;;;;;;4.10;3.13;;;28.70;46.90;;;;;;4992019;28;20026;-72
2023/08/09 05:20:21;;;;;;;7.93;3.45;;;29.00;46.10;;;;;;4992033;28;20037;-73
2023/08/09 05:22:48;;;;;;;6.32;3.50;;;29.00;45.10;;;;;;4991554;28;20046;-76
2023/08/09 05:25:14;;;;;;;7.65;3.80;;;28.80;45.00;;;;;;4991518;28;20029;-74
2023/08/09 05:27:41;;;;;;;6.43;3.88;;;28.70;44.40;;;;;;4991606;28;20034;-73
2023/08/09 05:30:08;;;;;;;6.60;4.00;;;28.50;44.50;;;;;;4991682;28;20121;-73
2023/08/09 05:32:34;;;;;;;5.90;3.92;;;28.50;45.60;;;;;;4991172;28;20105;-74
2023/08/09 05:35:00;;;;;;;5.75;4.72;;;28.40;45.50;;;;;;4991667;28;20041;-73
2023/08/09 05:37:26;;;;;;;8.23;6.70;;;28.50;45.00;;;;;;4991818;28;20042;-73
2023/08/09 05:39:53;;;;;;;14.15;7.90;;;28.20;45.40;;;;;;4990171;28;20708;-73
2023/08/09 05:42:19;;;;;;;8.63;3.67;;;28.40;45.40;;;;;;4991585;28;20041;-75
2023/08/09 05:44:46;;;;;;;5.38;3.53;;;28.30;45.40;;;;;;4991413;28;20478;-76
2023/08/09 05:47:12;;;;;;;4.30;3.10;;;28.10;45.20;;;;;;4991847;28;20065;-76
2023/08/09 05:49:39;;;;;;;5.35;3.50;;;28.30;45.10;;;;;;4991673;28;20125;-75
2023/08/09 05:52:07;;;;;;;5.57;3.03;;;28.20;45.40;;;;;;4991591;28;20117;-75
2023/08/09 05:54:37;;;;;;;3.08;2.80;;;28.10;45.00;;;;;;4991615;28;20117;-76
2023/08/09 05:57:04;;;;;;;3.78;2.70;;;28.30;44.50;;;;;;4990490;28;20738;-75
2023/08/09 05:59:30;;;;;;;4.13;2.72;;;28.30;45.20;;;;;;4991754;28;20030;-74
2023/08/09 06:02:10;;;;;;;5.10;2.60;;;28.30;44.50;;;;;;4991878;28;20038;-80
2023/08/09 06:04:40;;;;;;;4.10;3.70;;;28.20;44.50;;;;;;4991654;28;20034;-80
2023/08/09 06:07:13;;;;;;;6.30;3.33;;;28.30;46.90;;;;;;4991520;28;20042;-78
2023/08/09 06:13:21;;;;;;;2.72;2.47;;;28.80;45.50;;;;;;4963537;28;20042;-74
2023/08/09 06:15:47;;;;;;;4.10;2.42;;;28.80;43.30;;;;;;4972565;28;20093;-75
2023/08/09 06:18:23;;;;;;;;;;;;;;;;;;;;;
2023/08/09 06:20:50;;;;;;;2.88;2.47;;;28.80;43.30;;;;;;4989073;28;20043;-76
2023/08/09 06:23:17;;;;;;;2.20;2.05;;;28.70;45.70;;;;;;4988842;28;20050;-77
2023/08/09 06:25:43;;;;;;;4.88;2.53;;;28.60;45.60;;;;;;4972662;28;20086;-74
2023/08/09 06:28:09;;;;;;;6.28;3.17;;;28.80;44.50;;;;;;4987420;28;20053;-72
2023/08/09 06:30:36;;;;;;;4.05;2.05;;;28.60;45.10;;;;;;4972036;28;20533;-75
2023/08/09 06:33:02;;;;;;;5.70;2.33;;;28.90;46.20;;;;;;4988285;28;20054;-76
2023/08/09 06:35:30;;;;;;;8.95;2.60;;;29.10;46.30;;;;;;4956413;28;20034;-76
2023/08/09 06:37:58;;;;;;;5.68;2.42;;;29.30;51.20;;;;;;4988522;28;20038;-74
2023/08/09 06:40:24;;;;;;;3.78;2.47;;;29.50;48.00;;;;;;4972309;28;20050;-75
2023/08/09 06:42:50;;;;;;;5.53;3.22;;;29.70;48.80;;;;;;4991449;28;20046;-75
2023/08/09 06:45:21;;;;;;;7.32;3.67;;;29.60;50.20;;;;;;4975744;28;20042;-75
2023/08/09 06:47:47;;;;;;;7.97;2.90;;;29.50;50.00;;;;;;4988880;28;20073;-74
2023/08/09 06:50:13;;;;;;;5.15;2.60;;;29.70;49.30;;;;;;4993396;28;20038;-76
2023/08/09 06:52:39;;;;;;;6.50;2.65;;;29.70;54.10;;;;;;4994450;28;20030;-74
2023/08/09 06:55:07;;;;;;;6.00;3.25;;;29.70;49.30;;;;;;4994512;28;20393;-73
2023/08/09 06:57:34;;;;;;;4.18;2.83;;;29.80;52.10;;;;;;4994540;28;20034;-72
2023/08/09 07:00:02;;;;;;;10.45;4.43;;;30.10;55.30;;;;;;4994462;28;20141;-74
2023/08/09 07:02:30;;;;;;;3.83;2.45;;;30.20;61.80;;;;;;4999487;28;20030;-74
2023/08/09 07:05:01;;;;;;;5.13;2.38;;;30.30;53.10;;;;;;5014133;28;20087;-74
2023/08/09 07:07:27;;;;;;;3.95;2.00;;;30.40;50.90;;;;;;5013709;28;20030;-73
2023/08/09 07:09:55;;;;;;;5.72;2.50;;;30.40;50.50;;;;;;5014196;28;20034;-74
2023/08/09 07:12:21;;;;;;;6.63;2.60;;;30.30;51.00;;;;;;5013813;28;20440;-74
2023/08/09 07:14:53;;;;;;;8.68;2.42;;;30.40;50.60;;;;;;5014070;28;20058;-78
2023/08/09 07:17:20;;;;;;;3.92;2.17;;;30.40;49.90;;;;;;5028940;28;20126;-75
2023/08/09 07:19:46;;;;;;;7.68;2.45;;;30.50;47.60;;;;;;5027895;28;20129;-75
2023/08/09 07:22:12;;;;;;;10.15;3.10;;;30.50;46.20;;;;;;5013655;28;20042;-77
2023/08/09 07:24:38;;;;;;;7.30;2.60;;;30.40;47.60;;;;;;5013942;28;20363;-77
2023/08/09 07:27:04;;;;;;;4.70;2.42;;;30.50;47.10;;;;;;5013695;28;20527;-75
2023/08/09 07:29:33;;;;;;;6.13;2.35;;;30.40;50.50;;;;;;5013608;28;20416;-75
2023/08/09 07:32:00;;;;;;;7.03;2.90;;;30.50;45.80;;;;;;5011956;28;20041;-74
2023/08/09 07:34:27;;;;;;;5.82;2.45;;;30.60;47.80;;;;;;5028512;28;20053;-75
2023/08/09 07:36:56;;;;;;;4.85;2.28;;;30.50;51.60;;;;;;5005908;28;20053;-74
2023/08/09 07:39:25;;;;;;;7.30;2.53;;;30.50;45.80;;;;;;4993449;28;20085;-73
2023/08/09 07:41:51;;;;;;;7.63;3.28;;;30.50;47.50;;;;;;4992420;28;20394;-74
2023/08/09 07:44:17;;;;;;;2.33;1.98;;;30.40;53.20;;;;;;4993962;28;20038;-72
2023/08/09 07:46:43;;;;;;;2.72;1.77;;;30.60;48.40;;;;;;4993632;28;20074;-73
2023/08/09 07:49:09;;;;;;;4.75;2.05;;;30.50;44.70;;;;;;4993413;28;20068;-73
2023/08/09 07:51:36;;;;;;;3.90;2.22;;;30.40;47.60;;;;;;4992546;28;20070;-73
2023/08/09 07:54:02;;;;;;;5.35;1.98;;;30.30;43.10;;;;;;4974597;28;20474;-74
2023/08/09 07:56:29;;;;;;;8.02;1.75;;;30.30;43.90;;;;;;4993583;28;20026;-75
2023/08/09 07:58:55;;;;;;;5.15;2.25;;;30.30;45.80;;;;;;4993567;28;20022;-76
2023/08/09 08:01:21;;;;;;;3.47;1.75;;;30.40;51.60;;;;;;4993096;28;20113;-75
2023/08/09 08:03:47;;;;;;;3.38;2.33;;;30.40;45.10;;;;;;4993157;28;20121;-76
2023/08/09 08:06:14;;;;;;;3.42;2.20;;;30.50;47.20;;;;;;4993185;28;20202;-71
2023/08/09 08:08:41;;;;;;;4.97;2.10;;;30.20;44.20;;;;;;4993158;28;20506;-72
2023/08/09 08:11:07;;;;;;;1.98;1.58;;;30.30;46.10;;;;;;4991578;28;20565;-72
2023/08/09 08:13:33;;;;;;;2.47;1.70;;;30.30;45.90;;;;;;4991709;28;20186;-72
2023/08/09 08:15:59;;;;;;;4.15;2.03;;;30.30;46.40;;;;;;4992694;28;20034;-72
2023/08/09 08:18:26;;;;;;;3.90;2.35;;;30.10;44.90;;;;;;4992868;28;20038;-74
2023/08/09 08:20:53;;;;;;;4.18;1.80;;;30.30;44.50;;;;;;4993136;28;20045;-74
2023/08/09 08:23:19;;;;;;;4.30;1.88;;;30.10;46.60;;;;;;4991241;28;20041;-73
2023/08/09 08:25:57;;;;;;;3.13;1.83;;;30.10;44.60;;;;;;5007678;28;20037;-72
2023/08/09 08:28:36;;;;;;;2.78;1.70;;;30.10;44.00;;;;;;4992513;28;20030;-75
2023/08/09 08:31:05;;;;;;;1.50;1.40;;;30.00;42.50;;;;;;4991136;28;20397;-75
2023/08/09 08:33:31;;;;;;;3.85;1.52;;;30.00;43.40;;;;;;4992424;28;20112;-74
2023/08/09 08:35:59;;;;;;;1.65;1.55;;;30.20;43.70;;;;;;4991436;28;20104;-75
2023/08/09 08:38:26;;;;;;;6.03;1.50;;;30.10;42.10;;;;;;4973107;28;20182;-74
2023/08/09 08:40:52;;;;;;;3.78;1.65;;;30.10;41.60;;;;;;4973203;28;20027;-74
2023/08/09 08:43:19;;;;;;;6.72;2.05;;;30.20;44.50;;;;;;4972832;28;20046;-74
2023/08/09 08:45:47;;;;;;;3.53;1.90;;;30.30;48.30;;;;;;4972942;28;20115;-74
2023/08/09 08:48:14;;;;;;;2.50;1.65;;;30.40;47.10;;;;;;5004111;28;20096;-75
2023/08/09 08:50:42;;;;;;;1.50;1.40;;;30.30;46.90;;;;;;4973257;28;20034;-73
2023/08/09 08:53:10;;;;;;;3.55;1.73;;;30.30;47.80;;;;;;4972660;28;20110;-73
2023/08/09 08:55:36;;;;;;;3.17;1.80;;;30.20;42.40;;;;;;4972843;28;20103;-73
2023/08/09 08:58:03;;;;;;;2.63;1.85;;;30.50;42.20;;;;;;5003888;28;20045;-73
2023/08/09 09:00:29;;;;;;;7.75;6.70;;;30.20;42.40;;;;;;4972752;28;20042;-73
2023/08/09 09:02:56;;;;;;;2.63;2.28;;;30.40;42.30;;;;;;4972582;28;20019;-71
2023/08/09 09:05:23;;;;;;;1.52;1.42;;;30.40;42.70;;;;;;4972351;28;20081;-75
2023/08/09 09:07:50;;;;;;;2.97;2.00;;;30.40;42.30;;;;;;4972784;28;20042;-75
2023/08/09 09:10:19;;;;;;;1.55;1.45;;;30.40;42.10;;;;;;4972416;28;20031;-80
2023/08/09 09:12:46;;;;;;;12.00;2.22;;;30.30;41.50;;;;;;5003766;28;20042;-78
2023/08/09 09:15:14;;;;;;;6.20;2.10;;;30.40;41.90;;;;;;4972560;28;20039;-74
2023/08/09 09:17:44;;;;;;;2.03;1.38;;;30.40;41.80;;;;;;4972878;28;20546;-76
2023/08/09 09:20:27;;;;;;;2.72;1.70;;;30.30;41.10;;;;;;4972534;28;20030;-75
2023/08/09 09:22:53;;;;;;;3.78;1.48;;;30.20;41.50;;;;;;4971994;28;20058;-73
2023/08/09 09:25:22;;;;;;;28.85;21.02;;;30.40;41.20;;;;;;4972351;28;20117;-72
2023/08/09 09:27:52;;;;;;;14.48;7.55;;;30.40;39.90;;;;;;4972496;28;20034;-72
2023/08/09 09:30:21;;;;;;;7.88;4.00;;;30.20;40.20;;;;;;4975450;28;20030;-71
2023/08/09 09:33:00;;;;;;;4.15;2.75;;;30.30;41.60;;;;;;4979088;28;20137;-71
2023/08/09 09:35:28;;;;;;;2.03;1.80;;;30.30;41.80;;;;;;4988483;28;20026;-71
2023/08/09 09:37:58;;;;;;;2.30;1.73;;;30.20;41.10;;;;;;5004866;28;20158;-71
2023/08/09 09:40:28;;;;;;;3.35;2.05;;;30.30;40.50;;;;;;4991388;28;20034;-71
2023/08/09 09:42:56;;;;;;;1.42;1.33;;;30.20;40.20;;;;;;4991291;28;20141;-72
2023/08/09 09:45:23;;;;;;;2.53;2.15;;;30.40;39.50;;;;;;4991211;28;20043;-71
2023/08/09 09:47:51;;;;;;;3.78;2.50;;;30.20;40.00;;;;;;4991177;28;20491;-71
2023/08/09 09:50:18;;;;;;;2.83;2.47;;;30.20;40.40;;;;;;4991300;28;20034;-73
2023/08/09 09:52:46;;;;;;;3.35;2.38;;;30.10;41.20;;;;;;4991397;28;20064;-72
2023/08/09 09:55:14;;;;;;;3.40;1.58;;;30.30;41.50;;;;;;4989980;28;20038;-73
2023/08/09 09:57:40;;;;;;;2.95;2.15;;;30.20;41.30;;;;;;4991389;28;20042;-73
2023/08/09 10:00:09;;;;;;;4.20;2.35;;;30.00;41.50;;;;;;4990042;28;20117;-74
2023/08/09 10:02:48;;;;;;;3.42;2.35;;;30.10;41.90;;;;;;4991138;28;20046;-73
2023/08/09 10:05:39;;;;;;;3.03;2.40;;;30.10;42.60;;;;;;5003130;28;20375;-71
2023/08/09 10:08:07;;;;;;;3.30;2.13;;;30.10;43.00;;;;;;4971687;28;20450;-71
2023/08/09 10:10:36;;;;;;;2.67;2.33;;;30.10;43.20;;;;;;4989018;28;20070;-70
2023/08/09 10:13:05;;;;;;;3.05;2.25;;;30.10;43.10;;;;;;4991031;28;20467;-71
2023/08/09 10:15:56;;;;;;;1.98;1.85;;;30.00;42.60;;;;;;4991360;28;20073;-71
2023/08/09 10:18:43;;;;;;;1.90;1.70;;;30.00;42.90;;;;;;4972950;28;20086;-72
2023/08/09 10:21:14;;;;;;;2.60;1.90;;;30.00;42.50;;;;;;4972704;28;20109;-72
2023/08/09 10:24:13;;;;;;;1.67;1.58;;;29.80;42.40;;;;;;4972871;28;20046;-72
2023/08/09 10:26:44;;;;;;;4.88;1.33;;;29.90;42.00;;;;;;4973059;28;20082;-74
2023/08/09 10:29:18;;;;;;;2.13;1.02;;;30.00;42.80;;;;;;4956779;28;20062;-73
2023/08/09 10:31:59;;;;;;;3.17;1.83;;;29.90;41.70;;;;;;4972922;28;20074;-71
2023/08/09 10:34:36;;;;;;;2.50;2.10;;;29.90;42.80;;;;;;4972395;28;20062;-73
2023/08/09 10:37:05;;;;;;;2.35;2.15;;;29.90;43.90;;;;;;4972934;28;20166;-71
2023/08/09 10:39:33;;;;;;;2.35;1.80;;;29.80;43.60;;;;;;4972631;28;20050;-70
2023/08/09 10:42:08;;;;;;;2.95;2.08;;;29.90;43.40;;;;;;4972835;28;20052;-70
2023/08/09 10:44:50;;;;;;;1.73;1.63;;;29.70;43.20;;;;;;4972397;28;20074;-70
2023/08/09 10:47:18;;;;;;;1.35;1.25;;;29.70;42.90;;;;;;4972725;28;20039;-71
2023/08/09 10:49:47;;;;;;;5.20;1.77;;;29.70;42.70;;;;;;4972426;28;20072;-71
2023/08/09 10:52:15;;;;;;;2.45;1.80;;;29.70;42.80;;;;;;4972472;28;20038;-71
2023/08/09 10:54:43;;;;;;;2.22;1.38;;;29.70;42.90;;;;;;4977397;28;20069;-71
2023/08/09 10:57:10;;;;;;;2.42;1.70;;;29.80;43.00;;;;;;4994367;28;20039;-71
2023/08/09 10:59:43;;;;;;;2.53;2.00;;;29.70;43.20;;;;;;4994411;28;20042;-71
2023/08/09 11:02:09;;;;;;;;;;;29.60;43.40;;;;;;4977396;28;20501;-71
2023/08/09 11:04:36;;;;;;;1.45;1.35;;;29.60;43.90;;;;;;4993943;28;19913;-71
2023/08/09 11:07:02;;;;;;;2.15;1.55;;;29.60;44.20;;;;;;4992973;28;20109;-71
2023/08/09 11:09:32;;;;;;;1.80;1.70;;;29.60;44.40;;;;;;4994517;28;20351;-71
2023/08/09 11:11:59;;;;;;;1.90;1.63;;;29.60;44.40;;;;;;4994441;28;20113;-71
2023/08/09 11:14:25;;;;;;;2.65;1.70;;;29.50;44.40;;;;;;5008763;28;20044;-72
2023/08/09 11:16:52;;;;;;;2.05;1.67;;;29.50;44.40;;;;;;4994093;28;20030;-71
2023/08/09 11:19:20;;;;;;;2.22;1.60;;;29.50;44.60;;;;;;4993943;28;20034;-72
2023/08/09 11:21:56;;;;;;;1.70;1.45;;;29.60;44.60;;;;;;4994082;28;20154;-71
2023/08/09 11:24:26;;;;;;;1.42;1.30;;;29.70;44.70;;;;;;4994039;28;20467;-72
2023/08/09 11:26:57;;;;;;;1.45;1.35;;;29.50;49.30;;;;;;4993629;28;20034;-73
2023/08/09 11:29:26;;;;;;;2.10;1.42;;;29.70;49.80;;;;;;4993992;28;20490;-73
2023/08/09 11:31:57;;;;;;;1.70;1.60;;;29.80;47.00;;;;;;4993906;28;20030;-74
2023/08/09 11:34:24;;;;;;;1.58;1.48;;;29.60;46.50;;;;;;4994000;28;20061;-77
2023/08/09 11:36:55;;;;;;;3.15;1.10;;;29.70;46.20;;;;;;5000742;28;20034;-73
2023/08/09 11:39:23;;;;;;;1.55;1.40;;;29.60;46.10;;;;;;5009093;28;20042;-73
2023/08/09 11:41:56;;;;;;;2.22;1.52;;;29.70;46.20;;;;;;4974214;28;20038;-73
2023/08/09 11:44:33;;;;;;;2.72;1.52;;;29.50;46.40;;;;;;4974029;28;20058;-73
2023/08/09 11:47:01;;;;;;;2.30;1.55;;;29.50;46.40;;;;;;4988903;28;20440;-72
2023/08/09 11:49:28;;;;;;;2.10;1.42;;;29.50;46.60;;;;;;4974338;28;20391;-75
2023/08/09 11:51:55;;;;;;;1.35;1.25;;;29.50;46.60;;;;;;4974090;28;20035;-69
2023/08/09 11:54:21;;;;;;;1.70;1.60;;;29.40;46.70;;;;;;4973939;28;20459;-75
2023/08/09 11:56:48;;;;;;;1.98;1.45;;;29.60;46.80;;;;;;5004967;28;20503;-74
2023/08/09 11:59:19;;;;;;;2.85;1.48;;;29.50;46.90;;;;;;4973719;28;20049;-72
2023/08/09 12:01:47;;;;;;;2.28;1.88;;;29.40;46.90;;;;;;4973634;28;20019;-73
2023/08/09 12:04:20;;;;;;;2.70;1.40;;;29.50;47.50;;;;;;4973491;28;20422;-72
2023/08/09 12:06:54;;;;;;;2.78;1.50;;;29.30;48.00;;;;;;4973565;28;20043;-75
2023/08/09 12:09:30;;;;;;;1.70;1.60;;;29.40;47.70;;;;;;4973686;28;20038;-77
2023/08/09 12:12:07;;;;;;;1.92;1.60;;;29.40;47.90;;;;;;4973768;28;20039;-76
2023/08/09 12:14:36;;;;;;;3.75;1.73;;;29.40;48.10;;;;;;5004694;28;20474;-76
2023/08/09 12:17:02;;;;;;;1.60;1.50;;;29.30;48.10;;;;;;4973540;28;20109;-74
2023/08/09 12:19:29;;;;;;;2.80;1.33;;;29.20;48.60;;;;;;4973220;28;20031;-72
2023/08/09 12:21:55;;;;;;;1.65;1.52;;;29.10;49.20;;;;;;4973274;28;20391;-73
2023/08/09 12:24:22;;;;;;;2.70;1.50;;;29.20;49.10;;;;;;4973033;28;20085;-71
2023/08/09 12:26:48;;;;;;;2.28;1.48;;;29.10;49.40;;;;;;4973376;28;20057;-72
2023/08/09 12:29:14;;;;;;;2.25;1.20;;;29.10;49.80;;;;;;4973349;28;20367;-75
2023/08/09 12:31:40;;;;;;;2.33;1.45;;;29.10;49.60;;;;;;4973592;28;20394;-72
2023/08/09 12:34:09;;;;;;;1.48;1.38;;;29.00;49.30;;;;;;4972941;28;20065;-72
2023/08/09 12:36:35;;;;;;;3.08;1.83;;;29.00;49.20;;;;;;4982591;28;20045;-74
2023/08/09 12:39:01;;;;;;;1.35;1.10;;;29.10;49.20;;;;;;4997791;28;20449;-72
2023/08/09 12:41:28;;;;;;;1.05;1.00;;;29.10;49.20;;;;;;4992691;28;20038;-73
2023/08/09 12:43:54;;;;;;;1.73;1.40;;;29.00;49.40;;;;;;4992113;28;20074;-72
2023/08/09 12:46:20;;;;;;;1.60;1.50;;;29.00;49.20;;;;;;4991881;28;20117;-73
2023/08/09 12:48:46;;;;;;;2.08;1.27;;;28.90;48.40;;;;;;4992242;28;20089;-72
2023/08/09 12:51:13;;;;;;;2.35;1.52;;;29.10;49.20;;;;;;4992248;28;20363;-72
2023/08/09 12:53:40;;;;;;;1.20;1.08;;;29.00;50.80;;;;;;4992193;28;20045;-71
2023/08/09 12:56:17;;;;;;;2.92;1.55;;;29.10;50.20;;;;;;4990702;28;20113;-71